createdAt,value
2022-10-23T00:02:15.438Z,3.13
2022-10-23T00:12:16.723Z,3.00
2022-10-23T00:22:17.947Z,3.20
2022-10-23T00:32:19.269Z,3.28
2022-10-23T00:42:20.649Z,2.92
2022-10-23T00:52:21.870Z,2.90
2022-10-23T01:02:23.152Z,3.20
2022-10-23T01:12:24.399Z,2.75
2022-10-23T01:32:31.750Z,2.50
2022-10-23T01:42:32.994Z,2.47
2022-10-23T01:52:34.223Z,2.70
2022-10-23T02:02:35.573Z,2.90
2022-10-23T02:12:36.857Z,2.50
2022-10-23T02:22:38.121Z,2.50
2022-10-23T02:32:39.529Z,2.50
2022-10-23T02:42:40.887Z,2.45
2022-10-23T02:52:42.109Z,2.40
2022-10-23T03:02:43.328Z,2.42
2022-10-23T03:12:44.771Z,2.22
2022-10-23T03:22:46.492Z,2.15
2022-10-23T03:32:47.790Z,2.30
2022-10-23T03:42:49.020Z,2.45
2022-10-23T03:52:50.246Z,2.28
2022-10-23T04:02:51.479Z,2.42
2022-10-23T04:12:52.686Z,2.50
2022-10-23T04:22:53.891Z,2.42
2022-10-23T04:32:55.114Z,2.25
2022-10-23T04:42:56.348Z,2.10
2022-10-23T04:52:57.645Z,2.30
2022-10-23T05:02:58.931Z,2.35
2022-10-23T05:13:00.161Z,2.25
2022-10-23T05:23:01.352Z,1.90
2022-10-23T05:33:02.593Z,1.98
2022-10-23T05:43:03.869Z,1.90
2022-10-23T05:53:05.110Z,1.85
2022-10-23T06:03:06.388Z,1.75
2022-10-23T06:13:07.652Z,1.88
2022-10-23T06:23:08.928Z,1.80
2022-10-23T06:33:10.198Z,1.85
2022-10-23T06:43:11.448Z,1.67
2022-10-23T06:53:12.665Z,1.70
2022-10-23T07:03:13.887Z,1.70
2022-10-23T07:13:15.143Z,1.67
2022-10-23T07:23:16.364Z,1.65
2022-10-23T07:33:17.591Z,1.90
2022-10-23T07:43:18.919Z,1.75
2022-10-23T07:53:20.214Z,1.70
2022-10-23T08:03:21.465Z,1.80
2022-10-23T08:13:22.723Z,1.58
2022-10-23T08:23:23.943Z,1.70
2022-10-23T08:33:25.199Z,1.65
2022-10-23T08:43:26.427Z,1.95
2022-10-23T08:53:27.644Z,1.58
2022-10-23T09:03:28.883Z,1.63
2022-10-23T09:13:30.144Z,1.48
2022-10-23T09:23:31.401Z,1.60
2022-10-23T09:33:32.669Z,1.90
2022-10-23T09:43:33.901Z,2.22
2022-10-23T09:53:35.191Z,2.20
2022-10-23T10:03:36.425Z,1.90
2022-10-23T10:13:37.676Z,2.00
2022-10-23T10:23:38.993Z,1.92
2022-10-23T10:33:40.253Z,2.00
2022-10-23T10:43:41.520Z,1.90
2022-10-23T10:53:42.773Z,1.70
2022-10-23T11:03:44.019Z,1.85
2022-10-23T11:13:45.278Z,1.50
2022-10-23T11:23:46.503Z,1.73
2022-10-23T11:33:47.758Z,1.63
2022-10-23T11:43:49.090Z,1.90
2022-10-23T11:53:50.366Z,1.63
2022-10-23T12:03:51.597Z,1.83
2022-10-23T12:13:52.824Z,1.90
2022-10-23T12:23:54.145Z,2.00
2022-10-23T12:33:55.650Z,1.98
2022-10-23T12:43:56.896Z,1.80
2022-10-23T12:53:58.131Z,1.52
2022-10-23T13:03:59.370Z,1.73
2022-10-23T13:14:00.621Z,1.13
2022-10-23T13:24:01.823Z,1.88
2022-10-23T13:34:03.111Z,1.60
2022-10-23T13:44:04.999Z,1.73
2022-10-23T13:54:14.689Z,1.75
2022-10-23T14:04:21.970Z,1.60
2022-10-23T14:14:29.990Z,1.63
2022-10-23T14:24:38.008Z,1.73
2022-10-23T14:34:48.863Z,1.50
2022-10-23T14:44:56.988Z,1.98
2022-10-23T14:55:04.992Z,2.20
2022-10-23T15:05:13.045Z,1.80
2022-10-23T15:15:20.997Z,1.90
2022-10-23T15:25:29.004Z,2.15
2022-10-23T15:35:37.025Z,1.88
2022-10-23T15:45:38.245Z,1.98
2022-10-23T15:55:39.498Z,2.10
2022-10-23T16:05:40.748Z,3.05
2022-10-23T16:15:41.975Z,3.20
2022-10-23T16:25:43.207Z,3.15
2022-10-23T16:35:44.427Z,2.75
2022-10-23T16:45:45.796Z,2.80
2022-10-23T16:55:47.022Z,2.75
2022-10-23T17:05:48.254Z,2.75
2022-10-23T17:15:49.592Z,2.90
2022-10-23T17:25:50.841Z,2.83
2022-10-23T17:35:52.097Z,2.60
2022-10-23T17:45:53.345Z,2.40
2022-10-23T17:55:54.590Z,3.00
2022-10-23T18:05:55.841Z,2.60
2022-10-23T18:15:57.120Z,2.88
2022-10-23T18:25:58.342Z,2.75
2022-10-23T18:35:59.564Z,2.47
2022-10-23T18:46:00.803Z,2.65
2022-10-23T18:56:02.043Z,2.55
2022-10-23T19:06:03.296Z,2.65
2022-10-23T19:16:04.544Z,2.20
2022-10-23T19:26:05.809Z,2.47
2022-10-23T19:36:11.098Z,1.90
2022-10-23T19:46:15.239Z,1.90
2022-10-23T19:56:16.520Z,1.60
2022-10-23T20:06:17.746Z,1.80
2022-10-23T20:16:18.970Z,1.45
2022-10-23T20:26:20.289Z,1.48
2022-10-23T20:36:21.566Z,1.38
2022-10-23T20:46:22.793Z,1.35
2022-10-23T20:56:24.035Z,1.63
2022-10-23T21:06:25.278Z,1.50
2022-10-23T21:16:28.575Z,1.58
2022-10-23T21:26:29.971Z,1.67
2022-10-23T21:36:34.061Z,1.70
2022-10-23T21:46:35.564Z,1.60
2022-10-23T21:56:36.767Z,1.67
2022-10-23T22:06:37.998Z,1.80
2022-10-23T22:16:39.346Z,1.50
2022-10-23T22:26:40.579Z,1.60
2022-10-23T22:36:41.951Z,1.63
2022-10-23T22:46:43.163Z,1.63
2022-10-23T22:56:44.408Z,1.73
2022-10-23T23:06:45.646Z,1.80
2022-10-23T23:16:46.878Z,1.90
2022-10-23T23:26:48.112Z,1.67
2022-10-23T23:36:49.343Z,2.28
2022-10-23T23:46:51.101Z,1.77
2022-10-23T23:56:52.312Z,1.80
